PWSweather.com
Personal Weather Stations
Station Observations
MTCRAWFORD
Saddlebrook Subdivision, Mount Crawford, VA 22841

Saddlebrook SubdivisionMount Crawford, VA 22841

Lat: 38.3625069, Lon: -78.940918

Elevation: 1210

Station Type: OS-WMR968

Latest ConditionsUpdated 2:40:06 AM EDT Wednesday, Apr 25, 2018
Currently Today's Max Today's Min Today's Average
Temperature 50.7°F10.4°C 51.6°F10.9°C 50.7°F10.4°C 51.3°F10.7°C
Dew Point 49.3°F9.6°C 49.8°F9.9°C 49.2°F9.6°C 49.5°F9.7°C
Winds 3.4 mph NNE5.5 kmh NNE 7.3 mph NNE11.7 kmh NNE - 4.8 mph 7.7 kmh
Wind Gusts 7.8 mph12.6 kmh 10.3 mph16.6 kmh - -
Humidity 95% 95% 92% 94%
Pressure 29.91 in1012.9 mb 29.97 in1014.9 mb 29.91 in1012.9 mb -
Hour Temp Dew Point Humidity Winds Wind Gusts Pressure Precip Precip Rate Daily Precip Total
02:40 AM 50.7°F10.4°C 49.3°F9.6°C 95% 3.4 mph NNE5.5 kmh NNE 7.8 mph12.6 kmh 29.91 in1012.9 mb 0.00 in0.0 mm 0.00 in0.0 mm 0.03 in0.8 mm
02:34 AM 50.7°F10.4°C 49.3°F9.6°C 95% 4.5 mph N7.2 kmh N 10.3 mph16.6 kmh 29.91 in1012.9 mb 0.00 in0.0 mm 0.00 in0.0 mm 0.03 in0.8 mm
02:30 AM 50.7°F10.4°C 49.3°F9.6°C 95% 4.5 mph NE7.2 kmh NE 6.2 mph10.0 kmh 29.91 in1012.9 mb 0.00 in0.0 mm 0.00 in0.0 mm 0.03 in0.8 mm
02:25 AM 50.9°F10.5°C 49.5°F9.7°C 95% 5.0 mph N8.0 kmh N 7.8 mph12.6 kmh 29.91 in1012.9 mb 0.00 in0.0 mm 0.00 in0.0 mm 0.03 in0.8 mm
02:19 AM 50.9°F10.5°C 49.5°F9.7°C 95% 5.0 mph N8.0 kmh N 9.5 mph15.3 kmh 29.91 in1012.9 mb 0.00 in0.0 mm 0.00 in0.0 mm 0.03 in0.8 mm
02:15 AM 50.9°F10.5°C 49.2°F9.6°C 94% 3.9 mph NNE6.3 kmh NNE 7.3 mph11.7 kmh 29.91 in1012.9 mb 0.00 in0.0 mm 0.00 in0.0 mm 0.03 in0.8 mm
02:10 AM 51.1°F10.6°C 49.4°F9.7°C 94% 7.3 mph N11.7 kmh N 7.3 mph11.7 kmh 29.91 in1012.9 mb 0.01 in0.3 mm 0.00 in0.0 mm 0.03 in0.8 mm
02:05 AM 51.1°F10.6°C 49.4°F9.7°C 94% 3.9 mph NE6.3 kmh NE 7.3 mph11.7 kmh 29.91 in1012.9 mb 0.01 in0.3 mm 0.00 in0.0 mm 0.03 in0.8 mm
01:59 AM 51.1°F10.6°C 49.4°F9.7°C 94% 4.5 mph NNW7.2 kmh NNW 7.8 mph12.6 kmh 29.94 in1013.9 mb 0.01 in0.3 mm 0.00 in0.0 mm 0.03 in0.8 mm
01:55 AM 51.3°F10.7°C 49.6°F9.8°C 94% 6.7 mph NE10.8 kmh NE 6.7 mph10.8 kmh 29.94 in1013.9 mb 0.01 in0.3 mm 0.00 in0.0 mm 0.03 in0.8 mm
01:50 AM 51.3°F10.7°C 49.6°F9.8°C 94% 3.9 mph ENE6.3 kmh ENE 6.7 mph10.8 kmh 29.94 in1013.9 mb 0.01 in0.3 mm 0.00 in0.0 mm 0.03 in0.8 mm
01:44 AM 51.4°F10.8°C 49.8°F9.9°C 94% 6.7 mph NNE10.8 kmh NNE 6.7 mph10.8 kmh 29.94 in1013.9 mb 0.01 in0.3 mm 0.00 in0.0 mm 0.03 in0.8 mm
01:40 AM 51.3°F10.7°C 49.6°F9.8°C 94% 5.0 mph NE8.0 kmh NE 10.1 mph16.3 kmh 29.94 in1013.9 mb 0.01 in0.3 mm 0.00 in0.0 mm 0.03 in0.8 mm
01:35 AM 51.3°F10.7°C 49.6°F9.8°C 94% 3.4 mph NE5.5 kmh NE 6.2 mph10.0 kmh 29.94 in1013.9 mb 0.01 in0.3 mm 0.00 in0.0 mm 0.03 in0.8 mm
01:30 AM 51.3°F10.7°C 49.6°F9.8°C 94% 3.9 mph NE6.3 kmh NE 6.2 mph10.0 kmh 29.94 in1013.9 mb 0.01 in0.3 mm 0.00 in0.0 mm 0.03 in0.8 mm
01:25 AM 51.3°F10.7°C 49.6°F9.8°C 94% 6.2 mph N10.0 kmh N 7.3 mph11.7 kmh 29.94 in1013.9 mb 0.01 in0.3 mm 0.00 in0.0 mm 0.03 in0.8 mm
01:20 AM 51.4°F10.8°C 49.8°F9.9°C 94% 4.5 mph ENE7.2 kmh ENE 4.5 mph7.2 kmh 29.94 in1013.9 mb 0.01 in0.3 mm 0.00 in0.0 mm 0.03 in0.8 mm
01:15 AM 51.4°F10.8°C 49.8°F9.9°C 94% 6.2 mph NNE10.0 kmh NNE 7.8 mph12.6 kmh 29.94 in1013.9 mb 0.02 in0.5 mm 0.12 in3.0 mm 0.03 in0.8 mm
01:10 AM 51.4°F10.8°C 49.8°F9.9°C 94% 4.5 mph NNE7.2 kmh NNE 4.5 mph7.2 kmh 29.94 in1013.9 mb 0.01 in0.3 mm 0.00 in0.0 mm 0.02 in0.5 mm
01:05 AM 51.4°F10.8°C 49.8°F9.9°C 94% 5.0 mph NE8.0 kmh NE 6.7 mph10.8 kmh 29.94 in1013.9 mb 0.01 in0.3 mm 0.00 in0.0 mm 0.02 in0.5 mm
01:00 AM 51.4°F10.8°C 49.8°F9.9°C 94% 4.5 mph NNE7.2 kmh NNE 5.0 mph8.0 kmh 29.94 in1013.9 mb 0.01 in0.3 mm 0.00 in0.0 mm 0.02 in0.5 mm
12:55 AM 51.4°F10.8°C 49.5°F9.7°C 93% Calm Calm 6.7 mph10.8 kmh 29.94 in1013.9 mb 0.01 in0.3 mm 0.00 in0.0 mm 0.02 in0.5 mm
12:50 AM 51.4°F10.8°C 49.5°F9.7°C 93% 6.7 mph NE10.8 kmh NE 6.7 mph10.8 kmh 29.94 in1013.9 mb 0.01 in0.3 mm 0.00 in0.0 mm 0.02 in0.5 mm
12:44 AM 51.4°F10.8°C 49.5°F9.7°C 93% 3.9 mph NE6.3 kmh NE 10.1 mph16.3 kmh 29.94 in1013.9 mb 0.01 in0.3 mm 0.00 in0.0 mm 0.02 in0.5 mm
12:40 AM 51.4°F10.8°C 49.5°F9.7°C 93% 6.2 mph N10.0 kmh N 7.8 mph12.6 kmh 29.94 in1013.9 mb 0.01 in0.3 mm 0.00 in0.0 mm 0.02 in0.5 mm
12:34 AM 51.4°F10.8°C 49.5°F9.7°C 93% 3.4 mph N5.5 kmh N 7.3 mph11.7 kmh 29.94 in1013.9 mb 0.02 in0.5 mm 0.00 in0.0 mm 0.02 in0.5 mm
12:30 AM 51.4°F10.8°C 49.5°F9.7°C 93% 5.6 mph NE9.0 kmh NE 7.3 mph11.7 kmh 29.97 in1014.9 mb 0.02 in0.5 mm 0.00 in0.0 mm 0.02 in0.5 mm
12:24 AM 51.4°F10.8°C 49.5°F9.7°C 93% 5.0 mph N8.0 kmh N 7.3 mph11.7 kmh 29.97 in1014.9 mb 0.02 in0.5 mm 0.00 in0.0 mm 0.02 in0.5 mm
12:20 AM 51.4°F10.8°C 49.2°F9.6°C 92% 5.0 mph NE8.0 kmh NE 7.8 mph12.6 kmh 29.97 in1014.9 mb 0.02 in0.5 mm 0.12 in3.0 mm 0.02 in0.5 mm
12:15 AM 51.4°F10.8°C 49.2°F9.6°C 92% 7.3 mph NNE11.7 kmh NNE 7.3 mph11.7 kmh 29.97 in1014.9 mb 0.01 in0.3 mm 0.00 in0.0 mm 0.01 in0.3 mm
12:09 AM 51.4°F10.8°C 49.2°F9.6°C 92% 3.9 mph NNE6.3 kmh NNE 7.8 mph12.6 kmh 29.97 in1014.9 mb 0.01 in0.3 mm 0.00 in0.0 mm 0.01 in0.3 mm
12:05 AM 51.6°F10.9°C 49.4°F9.7°C 92% 5.0 mph NNE8.0 kmh NNE 7.8 mph12.6 kmh 29.97 in1014.9 mb 0.01 in0.3 mm 0.00 in0.0 mm 0.01 in0.3 mm
12:00 AM 51.6°F10.9°C 49.4°F9.7°C 92% 3.9 mph NNE6.3 kmh NNE 7.8 mph12.6 kmh 29.97 in1014.9 mb 0.01 in0.3 mm 0.00 in0.0 mm 0.01 in0.3 mm